KCNO/CNO METAR and TAF weather

Enter ICAO airport designator
Station Type Date Time Source
KCNO METAR 2018/12/10 17:53 UTC NOAA

KCNO 101753Z 09004KT 10SM BKN140 BKN200 16/09 A3013 RMK AO2 SLP199 T01610089 10161 20094 50006


Station Type Date Time Source
KCNO Decoded METAR 2018/12/10 17:53 UTC NOAA

CHINO AIRPORT, CA, United States (KCNO) 33-58N 117-38W 207M
Dec 10, 2018 - 12:53 PM EST / 2018.12.10 1753 UTC
Wind: from the E (090 degrees) at 5 MPH (4 KT):0
Visibility: 10 mile(s):0
Sky conditions: mostly cloudy
Temperature: 61.0 F (16.1 C)
Dew Point: 48.0 F (8.9 C)
Relative Humidity: 62%
Pressure (altimeter): 30.13 in. Hg (1020 hPa)
Pressure tendency: 0.02 inches (0.6 hPa) higher than three hours ago
ob: KCNO 101753Z 09004KT 10SM BKN140 BKN200 16/09 A3013 RMK AO2 SLP199 T01610089 10161 20094 50006
cycle: 18

Station Type Date Time Source
KCNO TAF UTC NOAA

Error!


Example: see airport list